»·PEaware :: N2612J KLNK-KLBF

N2612J :: KLNK-KLBF

FLIGHT INFORMATION

Flight Status: Arrived
Operator: Privately registered:
United States
More flights under this callsign
Pilot: Andrew F. (4171)
Aircraft: DEHAVILLAND DH-6 TWIN OTTER
(DHC6)
More flights by this aircraft type
Origin: KLNK Lincoln Mun
United States
Destination: KLBF North Platte Regl-Bird
United States
More flights between these airports :: More routes between these airports
Route: DIRECT
File this flight plan on PilotEdge
Remarks:
Altitude:
(Current/Filed)
4,500ft
Speed:
(Current/Filed)
160kts
Departed: 28-Mar-19 01:16 PM
Arrived: 28-Mar-19 02:29 PM
Distance/Time
Traveled:
179nm/1:13
Distance/Time
To Go:
Arrived

Flight Plot

Page will automatically refresh every two minutes.

Flight plan parsing failed; only flown route is shown


Map Options




Map Legend


Flown Route
Filed Route
Departure Airport
Arrival Airport
Navaid (VOR, NDB)
Fix

Horizontal Profiles

Position Reports

Time Latitude Longitude Heading Altitude Ground
Speed
28-Mar-19 13:10 40.850132 -96.748010 182 1224ft 0kts
28-Mar-19 13:11 40.850132 -96.748010 182 1224ft 0kts
28-Mar-19 13:12 40.850132 -96.748010 182 1224ft 0kts
28-Mar-19 13:13 40.849994 -96.748131 238 1224ft 5kts
28-Mar-19 13:14 40.847811 -96.749818 180 1224ft 9kts
28-Mar-19 13:15 40.847116 -96.749630 178 1224ft 9kts
28-Mar-19 13:16 40.847771 -96.750863 1 1225ft 60kts
28-Mar-19 13:17 40.864309 -96.768392 271 2259ft 124kts
28-Mar-19 13:18 40.868360 -96.811719 291 3395ft 123kts
28-Mar-19 13:19 40.872407 -96.857954 282 4405ft 129kts
28-Mar-19 13:20 40.877300 -96.905854 276 5353ft 131kts
28-Mar-19 13:21 40.882190 -96.954026 274 6352ft 134kts
28-Mar-19 13:22 40.882251 -96.992195 276 7767ft 88kts
28-Mar-19 13:22 40.881933 -97.019669 286 8433ft 90kts
28-Mar-19 13:24 40.886208 -97.068850 279 8498ft 133kts
28-Mar-19 13:25 40.890420 -97.119788 280 8503ft 147kts
28-Mar-19 13:25 40.894224 -97.165905 280 8508ft 155kts
28-Mar-19 13:27 40.899773 -97.233618 279 8518ft 161kts
28-Mar-19 13:27 40.903760 -97.282885 279 8517ft 162kts
28-Mar-19 13:29 40.909347 -97.352298 279 8517ft 163kts
28-Mar-19 13:29 40.913314 -97.402156 279 8516ft 163kts
28-Mar-19 13:30 40.918056 -97.461760 279 8516ft 163kts
28-Mar-19 13:31 40.922744 -97.521286 279 8516ft 163kts
28-Mar-19 13:32 40.927398 -97.580855 279 8516ft 163kts
28-Mar-19 13:34 40.932786 -97.650359 278 8515ft 163kts
28-Mar-19 13:34 40.936629 -97.700222 278 8517ft 163kts
28-Mar-19 13:35 40.941204 -97.759960 278 8519ft 163kts
28-Mar-19 13:36 40.945739 -97.819701 278 8522ft 163kts
28-Mar-19 13:37 40.950256 -97.879591 278 8524ft 163kts
28-Mar-19 13:38 40.954744 -97.939531 278 8526ft 163kts
28-Mar-19 13:39 40.959194 -97.999387 278 8503ft 164kts
28-Mar-19 13:40 40.963647 -98.059622 278 8498ft 163kts
28-Mar-19 13:41 40.968038 -98.119449 278 8498ft 163kts
28-Mar-19 13:42 40.972395 -98.179274 278 8498ft 162kts
28-Mar-19 13:43 40.976687 -98.238659 278 8498ft 162kts
28-Mar-19 13:44 40.980967 -98.298316 278 8498ft 162kts
28-Mar-19 13:45 40.985200 -98.357746 278 8498ft 162kts
28-Mar-19 13:46 40.989385 -98.416961 278 8498ft 162kts
28-Mar-19 13:47 40.993546 -98.476270 278 8498ft 161kts
28-Mar-19 13:48 40.997678 -98.535621 278 8498ft 161kts
28-Mar-19 13:49 41.001770 -98.594860 278 8498ft 161kts
28-Mar-19 13:50 41.005743 -98.652836 277 8497ft 161kts
28-Mar-19 13:51 41.009767 -98.712024 277 8494ft 161kts
28-Mar-19 13:52 41.013760 -98.771213 278 8489ft 161kts
28-Mar-19 13:53 41.017709 -98.830195 278 8485ft 161kts
28-Mar-19 13:54 41.021630 -98.889208 278 8480ft 160kts
28-Mar-19 13:55 41.025523 -98.948140 278 8480ft 160kts
28-Mar-19 13:56 41.029388 -99.007105 278 8480ft 160kts
28-Mar-19 13:57 41.033206 -99.065848 278 8480ft 160kts
28-Mar-19 13:58 41.036995 -99.124620 278 8480ft 160kts
28-Mar-19 13:59 41.040768 -99.183595 278 8481ft 160kts
28-Mar-19 14:00 41.044489 -99.242277 278 8482ft 159kts
28-Mar-19 14:01 41.048185 -99.301060 277 8484ft 159kts
28-Mar-19 14:02 41.051849 -99.359630 277 8485ft 159kts
28-Mar-19 14:03 41.055459 -99.418069 277 8486ft 159kts
28-Mar-19 14:04 41.059024 -99.476252 277 8485ft 158kts
28-Mar-19 14:05 41.062579 -99.534729 277 8488ft 158kts
28-Mar-19 14:06 41.066081 -99.592829 277 8488ft 158kts
28-Mar-19 14:07 41.069572 -99.651258 276 8489ft 158kts
28-Mar-19 14:08 41.073025 -99.709431 276 8498ft 158kts
28-Mar-19 14:09 41.076462 -99.767832 276 8499ft 159kts
28-Mar-19 14:10 41.079869 -99.826412 276 8499ft 159kts
28-Mar-19 14:11 41.083260 -99.885068 276 8499ft 159kts
28-Mar-19 14:12 41.086622 -99.943724 276 8499ft 159kts
28-Mar-19 14:13 41.089942 -100.002320 276 8498ft 159kts
28-Mar-19 14:14 41.093236 -100.061011 276 8498ft 159kts
28-Mar-19 14:15 41.096434 -100.119799 278 8507ft 161kts
28-Mar-19 14:16 41.099737 -100.179661 278 8498ft 163kts
28-Mar-19 14:17 41.102984 -100.239073 278 8501ft 165kts
28-Mar-19 14:18 41.106227 -100.299138 278 8028ft 165kts
28-Mar-19 14:19 41.109489 -100.360053 279 7261ft 165kts
28-Mar-19 14:20 41.112731 -100.421122 279 6504ft 166kts
28-Mar-19 14:21 41.115945 -100.482290 278 5780ft 166kts
28-Mar-19 14:22 41.119128 -100.543430 278 5031ft 166kts
28-Mar-19 14:23 41.122344 -100.604774 279 4236ft 166kts
28-Mar-19 14:24 41.137178 -100.657150 309 3860ft 126kts
28-Mar-19 14:25 41.155858 -100.691017 316 3809ft 112kts
28-Mar-19 14:26 41.140911 -100.707757 105 3372ft 91kts
28-Mar-19 14:27 41.128402 -100.683309 111 2771ft 50kts
28-Mar-19 14:28 41.125442 -100.679242 211 2770ft 1kts
28-Mar-19 14:29 41.126125 -100.682708 306 2771ft 13kts
28-Mar-19 14:30 41.128215 -100.686536 306 2774ft 11kts
28-Mar-19 14:31 41.130193 -100.690159 305 2775ft 12kts
28-Mar-19 14:32 41.131105 -100.694157 269 2778ft 11kts
28-Mar-19 14:33 41.131964 -100.695997 87 2778ft 0kts

Navigation Log

Ident Type
Flight plan parsing failed, navigation log unavailable